Time;durP1;ratioP1;P1;durP2;ratioP2;P2;SDS_P1;SDS_P2;PMS_P1;PMS_P2;Temp;Humidity;BMP_temperature;BMP_pressure;BME280_temperature;BME280_humidity;BME280_pressure;Samples;Min_cycle;Max_cycle;Signal;HPM_P1;HPM_P2
2022/04/05 00:21:54;;;;;;;4.12;3.17;;;;;;;;;;4719375;27;20096;-66
2022/04/05 00:24:21;;;;;;;3.67;3.37;;;;;;;;;;4306028;33;20110;-67
2022/04/05 00:26:47;;;;;;;3.47;3.17;;;;;;;;;;4313899;33;20561;-67
2022/04/05 00:29:13;;;;;;;3.83;3.28;;;;;;;;;;4306665;33;20112;-62
2022/04/05 00:31:39;;;;;;;5.03;2.80;;;;;;;;;;4304702;33;20633;-62
2022/04/05 00:34:05;;;;;;;3.67;3.17;;;;;;;;;;4304618;33;20115;-63
2022/04/05 00:36:31;;;;;;;4.35;3.10;;;;;;;;;;4290078;33;20119;-62
2022/04/05 00:38:57;;;;;;;2.95;2.70;;;;;;;;;;4288636;33;20222;-63
2022/04/05 00:41:23;;;;;;;3.40;3.10;;;;;;;;;;4285162;33;20483;-63
2022/04/05 00:43:49;;;;;;;3.60;3.10;;;;;;;;;;4290461;33;20203;-63
2022/04/05 00:46:15;;;;;;;3.85;3.35;;;;;;;;;;4290263;33;20103;-63
2022/04/05 00:48:53;;;;;;;3.30;3.00;;;;;;;;;;4286799;33;20116;-62
2022/04/05 00:51:20;;;;;;;3.37;3.08;;;;;;;;;;4290370;33;20092;-65
2022/04/05 00:53:48;;;;;;;3.40;2.97;;;;;;;;;;4304424;33;20127;-65
2022/04/05 00:56:15;;;;;;;4.12;3.03;;;;;;;;;;4304795;33;20225;-66
2022/04/05 00:58:43;;;;;;;5.00;3.22;;;;;;;;;;4297231;33;20602;-62
2022/04/05 01:01:15;;;;;;;3.87;3.00;;;;;;;;;;4290242;33;20233;-63
2022/04/05 01:03:47;;;;;;;3.40;3.10;;;;;;;;;;4290009;33;20455;-63
2022/04/05 01:06:15;;;;;;;4.90;2.87;;;;;;;;;;4276958;33;20115;-63
2022/04/05 01:08:43;;;;;;;5.37;2.90;;;;;;;;;;4289853;33;20124;-63
2022/04/05 01:11:10;;;;;;;3.35;2.90;;;;;;;;;;4271766;33;20211;-63
2022/04/05 01:13:36;;;;;;;3.37;3.05;;;;;;;;;;4288418;33;20123;-63
2022/04/05 01:16:02;;;;;;;3.33;3.00;;;;;;;;;;4290149;33;20136;-63
2022/04/05 01:18:28;;;;;;;4.40;4.03;;;;;;;;;;4273358;33;20542;-63
2022/04/05 01:20:53;;;;;;;3.45;3.00;;;;;;;;;;4276317;33;20143;-63
2022/04/05 01:23:23;;;;;;;3.15;2.90;;;;;;;;;;4284480;33;20459;-63
2022/04/05 01:25:51;;;;;;;6.10;2.97;;;;;;;;;;4289642;33;20103;-64
2022/04/05 01:28:17;;;;;;;3.72;3.30;;;;;;;;;;4289958;33;20119;-63
2022/04/05 01:30:43;;;;;;;3.22;2.92;;;;;;;;;;4264405;33;20254;-63
2022/04/05 01:33:09;;;;;;;6.80;3.12;;;;;;;;;;4290057;33;20099;-63
2022/04/05 01:35:35;;;;;;;3.22;2.97;;;;;;;;;;4276363;33;20195;-63
2022/04/05 01:38:02;;;;;;;4.68;2.87;;;;;;;;;;4289833;33;20120;-64
2022/04/05 01:40:28;;;;;;;3.25;2.95;;;;;;;;;;4285334;33;20103;-63
2022/04/05 01:42:55;;;;;;;3.58;3.28;;;;;;;;;;4289853;33;20099;-63
2022/04/05 01:45:21;;;;;;;3.22;2.92;;;;;;;;;;4272535;33;20107;-63
2022/04/05 01:47:47;;;;;;;5.40;3.03;;;;;;;;;;4288013;33;20100;-63
2022/04/05 01:50:13;;;;;;;3.85;2.67;;;;;;;;;;4283600;33;20208;-65
2022/04/05 01:52:39;;;;;;;4.85;3.00;;;;;;;;;;4289465;33;20106;-63
2022/04/05 01:55:06;;;;;;;3.55;3.25;;;;;;;;;;4289910;33;20519;-63
2022/04/05 01:57:32;;;;;;;3.62;2.87;;;;;;;;;;4285584;33;20120;-63
2022/04/05 01:59:58;;;;;;;4.07;3.20;;;;;;;;;;4289534;33;20463;-63
2022/04/05 02:02:24;;;;;;;4.82;3.17;;;;;;;;;;4289378;33;20132;-63
2022/04/05 02:04:51;;;;;;;4.87;3.03;;;;;;;;;;4289717;33;20233;-63
2022/04/05 02:07:18;;;;;;;2.75;2.53;;;;;;;;;;4272007;33;20609;-63
2022/04/05 02:09:46;;;;;;;3.78;3.03;;;;;;;;;;4288106;33;20103;-65
2022/04/05 02:12:12;;;;;;;6.00;3.33;;;;;;;;;;4289474;33;20143;-65
2022/04/05 02:14:38;;;;;;;4.28;2.90;;;;;;;;;;4289379;33;20102;-64
2022/04/05 02:17:05;;;;;;;3.45;3.15;;;;;;;;;;4282492;33;20122;-64
2022/04/05 02:19:31;;;;;;;5.00;3.00;;;;;;;;;;4288004;33;20119;-64
2022/04/05 02:21:57;;;;;;;3.70;3.40;;;;;;;;;;4289470;33;20127;-63
2022/04/05 02:24:23;;;;;;;3.30;3.00;;;;;;;;;;4284317;33;20115;-63
2022/04/05 02:26:50;;;;;;;3.20;2.90;;;;;;;;;;4289126;33;20110;-63
2022/04/05 02:29:16;;;;;;;3.67;2.72;;;;;;;;;;4289220;33;20114;-65
2022/04/05 02:31:42;;;;;;;3.15;2.83;;;;;;;;;;4288766;33;20110;-65
2022/04/05 02:34:09;;;;;;;3.47;3.17;;;;;;;;;;4282742;33;20152;-65
2022/04/05 02:36:35;;;;;;;3.12;2.83;;;;;;;;;;4289240;33;20127;-65
2022/04/05 02:39:01;;;;;;;5.30;2.97;;;;;;;;;;4289364;33;20132;-65
2022/04/05 02:41:27;;;;;;;3.35;3.00;;;;;;;;;;4289163;33;20514;-64
2022/04/05 02:43:53;;;;;;;5.97;2.80;;;;;;;;;;4287262;33;20103;-65
2022/04/05 02:46:20;;;;;;;10.20;3.10;;;;;;;;;;4283885;33;20102;-65
2022/04/05 02:48:46;;;;;;;6.10;3.30;;;;;;;;;;4288996;33;20519;-65
2022/04/05 02:51:16;;;;;;;4.70;3.35;;;;;;;;;;4288915;33;20135;-65
2022/04/05 02:53:42;;;;;;;4.60;2.90;;;;;;;;;;4289065;33;20495;-65
2022/04/05 02:56:09;;;;;;;3.17;2.87;;;;;;;;;;4282511;33;20158;-64
2022/04/05 02:58:35;;;;;;;2.95;2.65;;;;;;;;;;4287468;33;20589;-63
2022/04/05 03:01:02;;;;;;;4.30;3.30;;;;;;;;;;4289016;33;20095;-63
2022/04/05 03:03:28;;;;;;;4.30;3.08;;;;;;;;;;4275980;33;20104;-64
2022/04/05 03:05:54;;;;;;;6.15;3.25;;;;;;;;;;4296727;33;20273;-63
2022/04/05 03:08:20;;;;;;;3.67;2.83;;;;;;;;;;4298214;33;20506;-63
2022/04/05 03:10:46;;;;;;;5.93;2.70;;;;;;;;;;4303102;33;20202;-64
2022/04/05 03:13:12;;;;;;;3.58;2.90;;;;;;;;;;4303251;33;20515;-65
2022/04/05 03:15:38;;;;;;;8.77;4.18;;;;;;;;;;4303246;33;20111;-65
2022/04/05 03:18:04;;;;;;;5.80;3.08;;;;;;;;;;4303131;33;20198;-65
2022/04/05 03:20:31;;;;;;;6.15;3.20;;;;;;;;;;4299080;33;20175;-65
2022/04/05 03:23:00;;;;;;;6.05;3.10;;;;;;;;;;4302174;33;20122;-65
2022/04/05 03:25:27;;;;;;;13.73;4.53;;;;;;;;;;4284968;33;20127;-65
2022/04/05 03:27:53;;;;;;;4.75;3.12;;;;;;;;;;4287178;33;20448;-65
2022/04/05 03:30:22;;;;;;;6.07;2.90;;;;;;;;;;4271242;33;20463;-65
2022/04/05 03:32:48;;;;;;;4.68;3.08;;;;;;;;;;4287246;33;20142;-63
2022/04/05 03:35:15;;;;;;;4.87;3.00;;;;;;;;;;4270999;33;20119;-65
2022/04/05 03:37:41;;;;;;;7.45;3.53;;;;;;;;;;4286976;33;20218;-64
2022/04/05 03:40:08;;;;;;;3.42;3.00;;;;;;;;;;4269884;33;20443;-66
2022/04/05 03:42:34;;;;;;;4.95;2.72;;;;;;;;;;4288604;33;20111;-63
2022/04/05 03:45:01;;;;;;;6.05;3.10;;;;;;;;;;4289778;33;20602;-64
2022/04/05 03:47:27;;;;;;;5.57;2.80;;;;;;;;;;4285826;33;20179;-64
2022/04/05 03:49:54;;;;;;;8.18;3.12;;;;;;;;;;4300972;33;20120;-65
2022/04/05 03:52:21;;;;;;;10.15;3.40;;;;;;;;;;4293120;33;20217;-64
2022/04/05 03:54:47;;;;;;;5.05;2.90;;;;;;;;;;4297524;33;20518;-63
2022/04/05 03:57:13;;;;;;;3.25;2.87;;;;;;;;;;4270912;33;20095;-64
2022/04/05 03:59:39;;;;;;;4.05;3.08;;;;;;;;;;4280841;33;20174;-64
2022/04/05 04:02:05;;;;;;;3.50;2.70;;;;;;;;;;4303836;33;20104;-65
2022/04/05 04:04:31;;;;;;;3.40;3.10;;;;;;;;;;4300030;33;20116;-65
2022/04/05 04:06:57;;;;;;;8.02;3.17;;;;;;;;;;4303886;33;20442;-64
2022/04/05 04:09:23;;;;;;;4.70;3.47;;;;;;;;;;4305073;33;20103;-65
2022/04/05 04:11:50;;;;;;;7.12;3.30;;;;;;;;;;4302960;33;20100;-66
2022/04/05 04:14:16;;;;;;;3.95;3.33;;;;;;;;;;4287445;33;20119;-70
2022/04/05 04:16:42;;;;;;;6.20;3.28;;;;;;;;;;4303241;33;20205;-68
2022/04/05 04:19:08;;;;;;;7.60;3.20;;;;;;;;;;4296002;33;20123;-68
2022/04/05 04:21:34;;;;;;;9.35;3.20;;;;;;;;;;4301818;33;20174;-68
2022/04/05 04:24:00;;;;;;;4.50;2.90;;;;;;;;;;4295725;33;20118;-68
2022/04/05 04:26:26;;;;;;;6.15;3.10;;;;;;;;;;4301219;33;20111;-74
2022/04/05 04:28:55;;;;;;;6.87;3.42;;;;;;;;;;4301325;33;20179;-73
2022/04/05 04:31:21;;;;;;;4.00;3.15;;;;;;;;;;4261821;33;20108;-73
2022/04/05 04:33:47;;;;;;;6.00;3.30;;;;;;;;;;4262852;33;20529;-73
2022/04/05 04:36:13;;;;;;;5.87;3.28;;;;;;;;;;4283993;33;20191;-73
2022/04/05 04:38:39;;;;;;;5.75;3.47;;;;;;;;;;4289071;33;20499;-79
2022/04/05 04:41:05;;;;;;;5.53;3.25;;;;;;;;;;4272249;33;20103;-76
2022/04/05 04:43:31;;;;;;;8.05;3.33;;;;;;;;;;4290327;33;20191;-77
2022/04/05 04:45:57;;;;;;;3.50;3.17;;;;;;;;;;4288693;33;20214;-79
2022/04/05 04:48:23;;;;;;;12.07;3.92;;;;;;;;;;4273355;33;20538;-77
2022/04/05 04:50:50;;;;;;;6.05;3.25;;;;;;;;;;4290204;33;20144;-78
2022/04/05 04:53:16;;;;;;;6.72;3.05;;;;;;;;;;4285348;33;20128;-80
2022/04/05 04:55:42;;;;;;;5.75;3.28;;;;;;;;;;4288871;33;20116;-76
2022/04/05 04:58:08;;;;;;;5.37;3.03;;;;;;;;;;4276507;33;20557;-75
2022/04/05 05:00:34;;;;;;;4.22;3.05;;;;;;;;;;4267113;33;20123;-78
2022/04/05 05:03:00;;;;;;;6.55;3.05;;;;;;;;;;4297451;33;20100;-79
2022/04/05 05:05:26;;;;;;;7.80;3.37;;;;;;;;;;4302937;33;20143;-79
2022/04/05 05:07:53;;;;;;;11.98;3.12;;;;;;;;;;4302840;33;20119;-76
2022/04/05 05:10:20;;;;;;;8.27;3.10;;;;;;;;;;4298817;33;20138;-73
2022/04/05 05:12:46;;;;;;;6.12;3.12;;;;;;;;;;4302808;33;20106;-73
2022/04/05 05:15:16;;;;;;;6.28;3.10;;;;;;;;;;4286435;33;20114;-72
2022/04/05 05:17:43;;;;;;;9.13;3.55;;;;;;;;;;4277335;33;20637;-77
2022/04/05 05:20:10;;;;;;;7.07;3.25;;;;;;;;;;4290741;33;20119;-78
2022/04/05 05:22:36;;;;;;;7.35;3.22;;;;;;;;;;4304031;33;20127;-78
2022/04/05 05:25:03;;;;;;;5.43;3.10;;;;;;;;;;4304323;33;20116;-77
2022/04/05 05:27:29;;;;;;;8.98;3.45;;;;;;;;;;4304033;33;20511;-77
2022/04/05 05:29:55;;;;;;;3.53;2.55;;;;;;;;;;4304070;33;20541;-74
2022/04/05 05:32:21;;;;;;;7.78;3.50;;;;;;;;;;4298665;33;20213;-74
2022/04/05 05:34:47;;;;;;;7.10;2.80;;;;;;;;;;4304306;33;20427;-75
2022/04/05 05:37:14;;;;;;;3.87;3.15;;;;;;;;;;4303995;33;20091;-69
2022/04/05 05:39:40;;;;;;;5.35;3.37;;;;;;;;;;4304126;33;20122;-70
2022/04/05 05:42:06;;;;;;;7.22;3.17;;;;;;;;;;4303982;33;20114;-70
2022/04/05 05:44:33;;;;;;;5.57;3.60;;;;;;;;;;4304160;33;20111;-70
2022/04/05 05:47:00;;;;;;;3.92;3.35;;;;;;;;;;4304439;33;20198;-70
2022/04/05 05:49:26;;;;;;;5.87;3.28;;;;;;;;;;4304406;33;20114;-69
2022/04/05 05:51:52;;;;;;;3.45;3.15;;;;;;;;;;4301982;33;20139;-75
2022/04/05 05:54:18;;;;;;;5.12;3.15;;;;;;;;;;4304126;33;20116;-74
2022/04/05 05:56:44;;;;;;;6.82;3.33;;;;;;;;;;4304155;33;20107;-73
2022/04/05 05:59:10;;;;;;;7.93;3.03;;;;;;;;;;4303995;33;20114;-73
2022/04/05 06:01:36;;;;;;;6.20;3.00;;;;;;;;;;4300553;33;20095;-73
2022/04/05 06:04:02;;;;;;;9.57;3.30;;;;;;;;;;4297059;33;20118;-75
2022/04/05 06:06:31;;;;;;;4.10;2.87;;;;;;;;;;4303047;33;20142;-75
2022/04/05 06:08:57;;;;;;;9.13;3.50;;;;;;;;;;4304088;33;20199;-74
2022/04/05 06:11:23;;;;;;;3.80;2.87;;;;;;;;;;4299022;33;20202;-73
2022/04/05 06:13:50;;;;;;;6.03;3.22;;;;;;;;;;4302458;33;20139;-74
2022/04/05 06:16:16;;;;;;;8.88;3.33;;;;;;;;;;4298127;33;20117;-70
2022/04/05 06:18:42;;;;;;;5.68;2.92;;;;;;;;;;4302493;33;20214;-74
2022/04/05 06:21:09;;;;;;;4.10;2.90;;;;;;;;;;4297115;33;20134;-75
2022/04/05 06:23:35;;;;;;;4.80;3.03;;;;;;;;;;4303839;33;20103;-74
2022/04/05 06:26:01;;;;;;;11.05;3.37;;;;;;;;;;4303991;33;20098;-76
2022/04/05 06:28:27;;;;;;;6.75;3.78;;;;;;;;;;4303705;33;20112;-75
2022/04/05 06:30:53;;;;;;;4.50;3.35;;;;;;;;;;4301627;33;20519;-75
2022/04/05 06:33:22;;;;;;;5.57;3.40;;;;;;;;;;4303938;33;20115;-75
2022/04/05 06:35:50;;;;;;;7.55;3.47;;;;;;;;;;4303457;33;20094;-75
2022/04/05 06:38:16;;;;;;;6.82;3.33;;;;;;;;;;4286142;33;20229;-75
2022/04/05 06:40:43;;;;;;;6.07;3.53;;;;;;;;;;4314132;33;20515;-74
2022/04/05 06:43:10;;;;;;;5.80;3.37;;;;;;;;;;4303605;33;20211;-75
2022/04/05 06:45:36;;;;;;;6.50;3.53;;;;;;;;;;4303429;33;20087;-72
2022/04/05 06:48:03;;;;;;;5.78;3.30;;;;;;;;;;4303673;33;20189;-72
2022/04/05 06:50:29;;;;;;;8.27;3.25;;;;;;;;;;4299595;33;20112;-73
2022/04/05 06:52:57;;;;;;;5.90;3.50;;;;;;;;;;4302079;33;20132;-72
2022/04/05 06:55:24;;;;;;;8.10;3.50;;;;;;;;;;4274333;33;20105;-71
2022/04/05 06:57:50;;;;;;;8.32;3.60;;;;;;;;;;4303410;33;20471;-75
2022/04/05 07:00:18;;;;;;;10.50;3.55;;;;;;;;;;4303385;33;20096;-74
2022/04/05 07:02:44;;;;;;;8.55;3.58;;;;;;;;;;4276828;33;20591;-75
2022/04/05 07:05:10;;;;;;;6.37;3.22;;;;;;;;;;4303314;33;20122;-75
2022/04/05 07:07:38;;;;;;;9.13;3.55;;;;;;;;;;4303687;33;20108;-75
2022/04/05 07:10:05;;;;;;;11.45;3.85;;;;;;;;;;4296348;33;20088;-76
2022/04/05 07:12:31;;;;;;;7.75;3.53;;;;;;;;;;4302008;33;20130;-75
2022/04/05 07:14:57;;;;;;;6.37;3.45;;;;;;;;;;4303146;33;20548;-74
2022/04/05 07:17:25;;;;;;;4.80;2.97;;;;;;;;;;4298282;33;20112;-75
2022/04/05 07:19:52;;;;;;;6.18;3.10;;;;;;;;;;4303881;33;20207;-75
2022/04/05 07:22:19;;;;;;;8.25;3.58;;;;;;;;;;4299895;33;20111;-74
2022/04/05 07:24:46;;;;;;;5.12;2.90;;;;;;;;;;4305346;33;20091;-75
2022/04/05 07:27:13;;;;;;;3.22;2.72;;;;;;;;;;4299305;33;20467;-75
2022/04/05 07:29:40;;;;;;;7.12;3.37;;;;;;;;;;4305177;33;20102;-74
2022/04/05 07:32:06;;;;;;;10.65;3.50;;;;;;;;;;4305520;33;20449;-75
2022/04/05 07:34:33;;;;;;;5.32;3.17;;;;;;;;;;4289269;33;20197;-74
2022/04/05 07:36:59;;;;;;;8.27;3.28;;;;;;;;;;4303759;33;20135;-74
2022/04/05 07:39:25;;;;;;;5.62;3.25;;;;;;;;;;4305330;33;20482;-75
2022/04/05 07:41:51;;;;;;;9.38;3.60;;;;;;;;;;4303468;33;20127;-77
2022/04/05 07:44:18;;;;;;;4.45;3.15;;;;;;;;;;4276141;33;20142;-78
2022/04/05 07:46:44;;;;;;;6.28;3.17;;;;;;;;;;4303836;33;20208;-78
2022/04/05 07:49:10;;;;;;;7.45;3.10;;;;;;;;;;4298999;33;20103;-78
2022/04/05 07:51:36;;;;;;;10.23;3.65;;;;;;;;;;4303858;33;20201;-77
2022/04/05 07:54:04;;;;;;;6.25;3.30;;;;;;;;;;4298677;33;20087;-78
2022/04/05 07:56:30;;;;;;;8.48;3.25;;;;;;;;;;4303628;33;20475;-78
2022/04/05 07:58:57;;;;;;;7.15;3.35;;;;;;;;;;4303969;33;20115;-76
2022/04/05 08:01:24;;;;;;;6.97;3.70;;;;;;;;;;4276392;33;20213;-75
2022/04/05 08:03:51;;;;;;;6.80;2.80;;;;;;;;;;4304276;33;20102;-76
2022/04/05 08:06:17;;;;;;;6.20;2.60;;;;;;;;;;4306142;33;20475;-77
2022/04/05 08:08:43;;;;;;;5.82;2.45;;;;;;;;;;4301693;33;20096;-82
2022/04/05 08:11:09;;;;;;;14.32;3.15;;;;;;;;;;4296143;33;20766;-80
2022/04/05 08:13:35;;;;;;;7.25;3.17;;;;;;;;;;4298188;33;20569;-78
2022/04/05 08:16:01;;;;;;;7.50;3.53;;;;;;;;;;4288293;33;20550;-78
2022/04/05 08:18:27;;;;;;;7.20;3.10;;;;;;;;;;4302404;33;20111;-78
2022/04/05 08:20:54;;;;;;;10.02;3.75;;;;;;;;;;4300078;33;20123;-83
2022/04/05 08:23:20;;;;;;;5.18;3.30;;;;;;;;;;4301765;33;20107;-72
2022/04/05 08:25:46;;;;;;;3.50;2.80;;;;;;;;;;4300258;33;20605;-77
2022/04/05 08:28:12;;;;;;;10.00;3.60;;;;;;;;;;4288650;33;20117;-77
2022/04/05 08:30:38;;;;;;;6.50;3.03;;;;;;;;;;4301255;33;20565;-74
2022/04/05 08:33:05;;;;;;;6.45;3.20;;;;;;;;;;4301615;33;20131;-77
2022/04/05 08:35:31;;;;;;;5.97;2.97;;;;;;;;;;4301704;33;20108;-78
2022/04/05 08:37:57;;;;;;;7.30;3.60;;;;;;;;;;4288155;33;20573;-79
2022/04/05 08:40:24;;;;;;;4.53;3.12;;;;;;;;;;4297911;33;20674;-79
2022/04/05 08:42:52;;;;;;;9.60;2.87;;;;;;;;;;4301421;33;20095;-76
2022/04/05 08:45:19;;;;;;;3.72;2.53;;;;;;;;;;4277261;33;20195;-78
2022/04/05 08:47:47;;;;;;;6.50;2.97;;;;;;;;;;4292255;33;20127;-82
2022/04/05 08:50:15;;;;;;;5.53;2.90;;;;;;;;;;4272331;33;20118;-84
2022/04/05 08:52:43;;;;;;;5.93;2.65;;;;;;;;;;4289073;33;20111;-77
2022/04/05 08:55:09;;;;;;;8.07;2.78;;;;;;;;;;4272379;33;20126;-78
2022/04/05 08:57:35;;;;;;;6.87;3.00;;;;;;;;;;4289169;33;20110;-78
2022/04/05 09:00:03;;;;;;;3.08;2.37;;;;;;;;;;4283705;33;20088;-68
2022/04/05 09:02:29;;;;;;;6.50;2.72;;;;;;;;;;4290502;33;20111;-80
2022/04/05 09:04:55;;;;;;;4.75;2.70;;;;;;;;;;4289823;33;20119;-79
2022/04/05 09:07:29;;;;;;;3.90;2.72;;;;;;;;;;4276218;33;20464;-83
2022/04/05 09:10:17;;;;;;;2.55;2.35;;;;;;;;;;4303525;33;20119;-82
2022/04/05 09:12:47;;;;;;;6.40;2.72;;;;;;;;;;4304553;33;20542;-80
2022/04/05 09:15:16;;;;;;;6.18;2.72;;;;;;;;;;4298546;33;20107;-78
2022/04/05 09:17:44;;;;;;;11.23;3.00;;;;;;;;;;4304411;33;20122;-76
2022/04/05 09:20:18;;;;;;;4.28;2.80;;;;;;;;;;4297855;33;20201;-77
2022/04/05 09:22:44;;;;;;;5.20;2.75;;;;;;;;;;4302563;33;20110;-77
2022/04/05 09:25:12;;;;;;;9.35;3.37;;;;;;;;;;4298091;33;20186;-78
2022/04/05 09:27:58;;;;;;;5.45;2.60;;;;;;;;;;4303906;33;20109;-76
2022/04/05 09:30:31;;;;;;;5.60;2.63;;;;;;;;;;4304200;33;20110;-83
2022/04/05 09:32:58;;;;;;;5.28;2.60;;;;;;;;;;4302638;33;20209;-79
2022/04/05 09:35:43;;;;;;;4.62;2.55;;;;;;;;;;4278623;33;20112;-79
2022/04/05 09:38:16;;;;;;;4.53;2.62;;;;;;;;;;4303941;33;20087;-79
2022/04/05 09:40:43;;;;;;;5.07;2.60;;;;;;;;;;4300753;33;20484;-80
2022/04/05 09:43:12;;;;;;;5.10;2.55;;;;;;;;;;4297602;33;20114;-79
2022/04/05 09:45:57;;;;;;;2.78;2.37;;;;;;;;;;4302606;33;20150;-80
2022/04/05 09:48:28;;;;;;;4.28;2.70;;;;;;;;;;4304052;33;20210;-81
2022/04/05 09:51:02;;;;;;;4.47;2.12;;;;;;;;;;4289875;33;20097;-82
2022/04/05 09:53:34;;;;;;;3.97;3.08;;;;;;;;;;4303435;33;20167;-80
2022/04/05 09:56:09;;;;;;;6.90;2.80;;;;;;;;;;4303937;33;20190;-80
2022/04/05 09:58:36;;;;;;;4.33;3.07;;;;;;;;;;4300062;33;20190;-79
2022/04/05 10:01:08;;;;;;;6.22;2.90;;;;;;;;;;4303722;33;20119;-80
2022/04/05 10:03:35;;;;;;;4.12;2.58;;;;;;;;;;4304047;33;20427;-75
2022/04/05 10:06:02;;;;;;;4.25;2.70;;;;;;;;;;4284077;33;20107;-74
2022/04/05 10:08:32;;;;;;;8.93;2.87;;;;;;;;;;4314764;33;20111;-79
2022/04/05 10:10:59;;;;;;;3.00;1.98;;;;;;;;;;4302163;33;20118;-77
2022/04/05 10:13:29;;;;;;;7.43;3.10;;;;;;;;;;4302559;33;20127;-76
2022/04/05 10:15:57;;;;;;;9.05;2.83;;;;;;;;;;4303658;33;20166;-78
2022/04/05 10:18:31;;;;;;;53.15;21.90;;;;;;;;;;4272584;33;20096;-79
2022/04/05 10:20:57;;;;;;;8.10;3.95;;;;;;;;;;4276421;33;20614;-79
2022/04/05 10:23:23;;;;;;;6.32;3.55;;;;;;;;;;4284814;33;20127;-79
2022/04/05 10:25:52;;;;;;;3.78;2.55;;;;;;;;;;4274305;33;20555;-80
2022/04/05 10:28:23;;;;;;;3.33;2.80;;;;;;;;;;4271748;33;20107;-77
2022/04/05 10:30:58;;;;;;;8.02;3.33;;;;;;;;;;4287455;33;20096;-77
2022/04/05 10:33:55;;;;;;;5.40;2.97;;;;;;;;;;4284585;33;20127;-80
2022/04/05 10:36:23;;;;;;;3.92;2.58;;;;;;;;;;4289267;33;20083;-80
2022/04/05 10:39:18;;;;;;;9.70;3.05;;;;;;;;;;4287008;33;20542;-78
2022/04/05 10:42:04;;;;;;;3.62;2.62;;;;;;;;;;4287156;33;20198;-78
2022/04/05 10:44:30;;;;;;;4.00;3.00;;;;;;;;;;4289168;33;20143;-78
2022/04/05 10:46:58;;;;;;;6.12;3.10;;;;;;;;;;4288327;33;20103;-79
2022/04/05 10:49:42;;;;;;;8.93;3.65;;;;;;;;;;4284472;33;20175;-79
2022/04/05 10:52:19;;;;;;;11.45;3.25;;;;;;;;;;4288627;33;20100;-77
2022/04/05 10:54:51;;;;;;;7.95;3.00;;;;;;;;;;4288010;33;20118;-80
2022/04/05 10:57:35;;;;;;;6.47;3.80;;;;;;;;;;4283463;33;20118;-79
2022/04/05 11:00:10;;;;;;;5.40;2.85;;;;;;;;;;4276181;33;20193;-79
2022/04/05 11:02:40;;;;;;;6.87;2.80;;;;;;;;;;4289065;33;20276;-77
2022/04/05 11:05:12;;;;;;;5.30;2.50;;;;;;;;;;4282941;33;20188;-76
2022/04/05 11:07:56;;;;;;;3.78;2.67;;;;;;;;;;4291545;33;20206;-80
2022/04/05 11:10:29;;;;;;;2.70;2.45;;;;;;;;;;4296132;33;20123;-77
2022/04/05 11:13:05;;;;;;;7.35;3.10;;;;;;;;;;4301770;33;20210;-76
2022/04/05 11:15:48;;;;;;;9.70;3.35;;;;;;;;;;4302794;33;20150;-76
2022/04/05 11:18:15;;;;;;;5.93;3.10;;;;;;;;;;4297171;33;20164;-74
2022/04/05 11:20:42;;;;;;;5.20;2.95;;;;;;;;;;4303146;33;20478;-77
2022/04/05 11:23:09;;;;;;;5.62;2.83;;;;;;;;;;4303468;33;20102;-78
2022/04/05 11:25:36;;;;;;;13.68;3.37;;;;;;;;;;4303429;33;21031;-77
2022/04/05 11:28:12;;;;;;;11.18;2.65;;;;;;;;;;4303727;33;20115;-74
2022/04/05 11:30:39;;;;;;;3.92;2.60;;;;;;;;;;4303043;33;20108;-73
2022/04/05 11:33:15;;;;;;;5.12;2.70;;;;;;;;;;4296879;33;20247;-77
2022/04/05 11:35:47;;;;;;;2.30;2.10;;;;;;;;;;4303001;33;20102;-72
2022/04/05 11:38:19;;;;;;;8.98;2.62;;;;;;;;;;4303026;33;20091;-72
2022/04/05 11:40:55;;;;;;;6.57;2.67;;;;;;;;;;4288154;33;20507;-77
2022/04/05 11:43:34;;;;;;;4.85;3.15;;;;;;;;;;4303165;33;20881;-78
2022/04/05 11:46:25;;;;;;;7.75;3.20;;;;;;;;;;4295755;33;20106;-79
2022/04/05 11:48:53;;;;;;;5.12;2.30;;;;;;;;;;4303128;33;20522;-79
2022/04/05 11:51:24;;;;;;;8.05;3.25;;;;;;;;;;4301883;33;20103;-78
2022/04/05 11:53:51;;;;;;;9.10;2.40;;;;;;;;;;4302926;33;20099;-79
2022/04/05 11:56:23;;;;;;;4.68;2.72;;;;;;;;;;4297155;33;20108;-78
2022/04/05 11:58:51;;;;;;;9.27;4.28;;;;;;;;;;4302787;33;20182;-79
2022/04/05 12:01:31;;;;;;;5.50;2.50;;;;;;;;;;4302671;33;20127;-79
2022/04/05 12:04:13;;;;;;;8.32;2.95;;;;;;;;;;4302270;33;20104;-78
2022/04/05 12:06:47;;;;;;;11.77;2.62;;;;;;;;;;4301228;33;20451;-78
2022/04/05 12:09:18;;;;;;;4.43;2.47;;;;;;;;;;4305143;33;20107;-78
2022/04/05 12:11:46;;;;;;;10.93;3.72;;;;;;;;;;4305055;33;20596;-77
2022/04/05 12:14:14;;;;;;;11.07;3.33;;;;;;;;;;4305345;33;20501;-76
2022/04/05 12:17:00;;;;;;;4.03;2.62;;;;;;;;;;4306687;33;20096;-78
2022/04/05 12:19:40;;;;;;;5.97;2.60;;;;;;;;;;4300713;33;20490;-79
2022/04/05 12:22:18;;;;;;;6.07;2.92;;;;;;;;;;4289492;33;20106;-81
2022/04/05 12:24:54;;;;;;;5.20;2.65;;;;;;;;;;4290563;33;20112;-80
2022/04/05 12:27:24;;;;;;;5.80;2.85;;;;;;;;;;4273404;33;20562;-81
2022/04/05 12:29:56;;;;;;;4.55;2.70;;;;;;;;;;4290866;33;20110;-79
2022/04/05 12:32:22;;;;;;;7.03;2.70;;;;;;;;;;4285444;33;20119;-77
2022/04/05 12:34:48;;;;;;;7.43;3.17;;;;;;;;;;4290650;33;20130;-78
2022/04/05 12:37:16;;;;;;;2.55;2.08;;;;;;;;;;4284580;33;20478;-76
2022/04/05 12:39:48;;;;;;;7.80;2.25;;;;;;;;;;4290381;33;20117;-75
2022/04/05 12:42:14;;;;;;;6.03;3.05;;;;;;;;;;4272607;33;20143;-75
2022/04/05 12:44:45;;;;;;;6.87;2.72;;;;;;;;;;4286089;33;20195;-75
2022/04/05 12:47:12;;;;;;;10.07;2.65;;;;;;;;;;4285822;33;20134;-77
2022/04/05 12:49:41;;;;;;;7.32;2.75;;;;;;;;;;4286164;33;20210;-79
2022/04/05 12:52:18;;;;;;;5.70;2.58;;;;;;;;;;4280142;33;20210;-77
2022/04/05 12:54:46;;;;;;;3.72;2.28;;;;;;;;;;4284560;33;20123;-78
2022/04/05 12:57:29;;;;;;;5.85;2.42;;;;;;;;;;4286032;33;20523;-78
2022/04/05 13:00:11;;;;;;;6.03;2.50;;;;;;;;;;4285953;33;20115;-77
2022/04/05 13:02:40;;;;;;;8.98;2.70;;;;;;;;;;4287823;33;20100;-80
2022/04/05 13:08:03;;;;;;;14.63;3.10;;;;;;;;;;4297404;33;20103;-80
2022/04/05 13:10:40;;;;;;;10.77;2.53;;;;;;;;;;4303160;33;20087;-79
2022/04/05 13:13:20;;;;;;;4.62;2.47;;;;;;;;;;4304411;33;20517;-78
2022/04/05 13:15:47;;;;;;;3.40;2.10;;;;;;;;;;4301964;33;20103;-77
2022/04/05 13:18:15;;;;;;;7.78;4.75;;;;;;;;;;4298604;33;20103;-77
2022/04/05 13:21:02;;;;;;;7.07;3.42;;;;;;;;;;4304603;33;20106;-77
2022/04/05 13:23:30;;;;;;;8.07;3.08;;;;;;;;;;4303917;33;20534;-78
2022/04/05 13:25:56;;;;;;;7.53;3.10;;;;;;;;;;4304511;33;20126;-78
2022/04/05 13:28:30;;;;;;;6.32;2.97;;;;;;;;;;4304404;33;20202;-77
2022/04/05 13:31:06;;;;;;;8.30;3.37;;;;;;;;;;4304481;33;20197;-77
2022/04/05 13:33:32;;;;;;;8.93;4.68;;;;;;;;;;4304254;33;20193;-76
2022/04/05 13:35:58;;;;;;;13.75;3.62;;;;;;;;;;4304649;33;20464;-79
2022/04/05 13:38:24;;;;;;;10.95;5.03;;;;;;;;;;4304994;33;20115;-79
2022/04/05 13:40:50;;;;;;;7.35;3.03;;;;;;;;;;4304234;33;20478;-77
2022/04/05 13:43:16;;;;;;;13.77;4.03;;;;;;;;;;4305109;33;20606;-77
2022/04/05 13:45:42;;;;;;;16.85;3.67;;;;;;;;;;4306177;33;20518;-77
2022/04/05 13:48:09;;;;;;;9.30;2.80;;;;;;;;;;4304378;33;20091;-77
2022/04/05 13:50:35;;;;;;;12.60;3.05;;;;;;;;;;4304336;33;20122;-77
2022/04/05 13:53:01;;;;;;;6.07;2.75;;;;;;;;;;4304101;33;20104;-80
2022/04/05 13:55:27;;;;;;;13.13;3.92;;;;;;;;;;4304194;33;20115;-83
2022/04/05 13:57:53;;;;;;;6.10;3.05;;;;;;;;;;4304272;33;20123;-82
2022/04/05 14:00:19;;;;;;;12.13;3.55;;;;;;;;;;4304316;33;20619;-79
2022/04/05 14:02:45;;;;;;;5.20;2.60;;;;;;;;;;4301197;33;20462;-79
2022/04/05 14:05:11;;;;;;;5.18;2.90;;;;;;;;;;4298336;33;20080;-80
2022/04/05 14:07:37;;;;;;;13.98;2.92;;;;;;;;;;4304154;33;20124;-79
2022/04/05 14:10:05;;;;;;;7.95;2.87;;;;;;;;;;4296950;33;20134;-80
2022/04/05 14:12:31;;;;;;;7.05;2.53;;;;;;;;;;4290452;33;20197;-79
2022/04/05 14:14:58;;;;;;;8.40;3.00;;;;;;;;;;4302432;33;20683;-80
2022/04/05 14:17:24;;;;;;;10.63;2.80;;;;;;;;;;4304099;33;20123;-79
2022/04/05 14:19:50;;;;;;;11.73;3.40;;;;;;;;;;4289778;33;20099;-81
2022/04/05 14:22:16;;;;;;;4.40;2.03;;;;;;;;;;4304147;33;20107;-80
2022/04/05 14:24:42;;;;;;;15.77;3.30;;;;;;;;;;4300534;33;20111;-82
2022/04/05 14:27:08;;;;;;;13.27;4.28;;;;;;;;;;4285299;33;20092;-75
2022/04/05 14:29:35;;;;;;;3.30;2.58;;;;;;;;;;4303812;33;20100;-82
2022/04/05 14:32:02;;;;;;;14.73;3.28;;;;;;;;;;4284910;33;20100;-80
2022/04/05 14:34:28;;;;;;;6.80;2.92;;;;;;;;;;4302463;33;20100;-78
2022/04/05 14:36:54;;;;;;;8.73;3.70;;;;;;;;;;4302623;33;20140;-77
2022/04/05 14:39:20;;;;;;;11.60;4.05;;;;;;;;;;4304069;33;20110;-77
2022/04/05 14:41:47;;;;;;;11.82;3.97;;;;;;;;;;4303740;33;20157;-79
2022/04/05 14:44:13;;;;;;;9.38;3.60;;;;;;;;;;4300043;33;20116;-76
2022/04/05 14:46:40;;;;;;;17.87;4.25;;;;;;;;;;4297126;33;20125;-68
2022/04/05 14:49:06;;;;;;;12.98;5.25;;;;;;;;;;4293146;33;20116;-70
2022/04/05 14:51:34;;;;;;;7.05;3.22;;;;;;;;;;4297122;33;20451;-71
2022/04/05 14:54:01;;;;;;;8.27;3.28;;;;;;;;;;4297287;33;20111;-70
2022/04/05 14:56:28;;;;;;;13.23;4.95;;;;;;;;;;4288117;33;20126;-69
2022/04/05 14:58:54;;;;;;;6.87;4.32;;;;;;;;;;4296420;33;20116;-68
2022/04/05 15:01:20;;;;;;;11.32;3.80;;;;;;;;;;4287424;33;20108;-66
2022/04/05 15:03:47;;;;;;;8.93;3.45;;;;;;;;;;4288679;33;20266;-62
2022/04/05 15:06:15;;;;;;;13.65;6.00;;;;;;;;;;4287590;33;20126;-62
2022/04/05 15:08:41;;;;;;;7.07;3.30;;;;;;;;;;4292834;33;20112;-64
2022/04/05 15:11:07;;;;;;;13.35;4.25;;;;;;;;;;4292209;33;20108;-65